sensor_id;sensor_type;location;lat;lon;timestamp;temperature;humidity
7934;DHT22;4012;48.896;9.192;2023-02-28T00:00:31;-0.80;99.90
7934;DHT22;4012;48.896;9.192;2023-02-28T00:02:57;-0.80;99.90
7934;DHT22;4012;48.896;9.192;2023-02-28T00:05:24;-0.80;99.90
7934;DHT22;4012;48.896;9.192;2023-02-28T00:07:50;-0.80;99.90
7934;DHT22;4012;48.896;9.192;2023-02-28T00:10:18;-0.90;99.90
7934;DHT22;4012;48.896;9.192;2023-02-28T00:12:47;-0.90;99.90
7934;DHT22;4012;48.896;9.192;2023-02-28T00:15:12;-0.90;99.90
7934;DHT22;4012;48.896;9.192;2023-02-28T00:17:38;-0.90;99.90
7934;DHT22;4012;48.896;9.192;2023-02-28T00:20:05;-0.90;99.90
7934;DHT22;4012;48.896;9.192;2023-02-28T00:22:39;-1.00;99.90
7934;DHT22;4012;48.896;9.192;2023-02-28T00:25:05;-0.90;99.90
7934;DHT22;4012;48.896;9.192;2023-02-28T00:27:32;-1.00;99.90
7934;DHT22;4012;48.896;9.192;2023-02-28T00:29:58;-1.00;99.90
7934;DHT22;4012;48.896;9.192;2023-02-28T00:32:24;-1.00;99.90
7934;DHT22;4012;48.896;9.192;2023-02-28T00:34:49;-1.00;99.90
7934;DHT22;4012;48.896;9.192;2023-02-28T00:37:15;-1.00;99.90
7934;DHT22;4012;48.896;9.192;2023-02-28T00:39:41;-1.00;99.90
7934;DHT22;4012;48.896;9.192;2023-02-28T00:42:07;-1.00;99.90
7934;DHT22;4012;48.896;9.192;2023-02-28T00:44:33;-1.00;99.90
7934;DHT22;4012;48.896;9.192;2023-02-28T00:46:59;-1.00;99.90
7934;DHT22;4012;48.896;9.192;2023-02-28T00:49:25;-1.10;99.90
7934;DHT22;4012;48.896;9.192;2023-02-28T00:51:52;-1.10;99.90
7934;DHT22;4012;48.896;9.192;2023-02-28T00:54:18;-1.10;99.90
7934;DHT22;4012;48.896;9.192;2023-02-28T00:56:43;-1.00;99.90
7934;DHT22;4012;48.896;9.192;2023-02-28T00:59:11;-1.00;99.90
7934;DHT22;4012;48.896;9.192;2023-02-28T01:01:37;-1.10;99.90
7934;DHT22;4012;48.896;9.192;2023-02-28T01:04:03;-1.10;99.90
7934;DHT22;4012;48.896;9.192;2023-02-28T01:06:28;-1.10;99.90
7934;DHT22;4012;48.896;9.192;2023-02-28T01:08:54;-1.10;99.90
7934;DHT22;4012;48.896;9.192;2023-02-28T01:11:19;-1.10;99.90
7934;DHT22;4012;48.896;9.192;2023-02-28T01:13:46;-1.10;99.90
7934;DHT22;4012;48.896;9.192;2023-02-28T01:16:12;-1.10;99.90
7934;DHT22;4012;48.896;9.192;2023-02-28T01:18:38;-1.10;99.90
7934;DHT22;4012;48.896;9.192;2023-02-28T01:21:10;-1.10;99.90
7934;DHT22;4012;48.896;9.192;2023-02-28T01:23:35;-1.10;99.90
7934;DHT22;4012;48.896;9.192;2023-02-28T01:26:13;-1.10;99.90
7934;DHT22;4012;48.896;9.192;2023-02-28T01:28:40;-1.20;99.90
7934;DHT22;4012;48.896;9.192;2023-02-28T01:31:06;-1.20;99.90
7934;DHT22;4012;48.896;9.192;2023-02-28T01:33:32;-1.20;99.90
7934;DHT22;4012;48.896;9.192;2023-02-28T01:35:59;-1.20;99.90
7934;DHT22;4012;48.896;9.192;2023-02-28T01:38:25;-1.20;99.90
7934;DHT22;4012;48.896;9.192;2023-02-28T01:40:51;-1.20;99.90
7934;DHT22;4012;48.896;9.192;2023-02-28T01:43:25;-1.20;99.90
7934;DHT22;4012;48.896;9.192;2023-02-28T01:45:56;-1.30;99.90
7934;DHT22;4012;48.896;9.192;2023-02-28T01:48:26;-1.20;99.90
7934;DHT22;4012;48.896;9.192;2023-02-28T01:50:53;-1.20;99.90
7934;DHT22;4012;48.896;9.192;2023-02-28T01:53:27;-1.20;99.90
7934;DHT22;4012;48.896;9.192;2023-02-28T01:55:56;-1.30;99.90
7934;DHT22;4012;48.896;9.192;2023-02-28T01:58:22;-1.30;99.90
7934;DHT22;4012;48.896;9.192;2023-02-28T02:00:48;-1.30;99.90
7934;DHT22;4012;48.896;9.192;2023-02-28T02:03:16;-1.30;99.90
7934;DHT22;4012;48.896;9.192;2023-02-28T02:05:46;-1.30;99.90
7934;DHT22;4012;48.896;9.192;2023-02-28T02:08:20;-1.30;99.90
7934;DHT22;4012;48.896;9.192;2023-02-28T02:10:55;-1.30;99.90
7934;DHT22;4012;48.896;9.192;2023-02-28T02:16:15;-1.30;99.90
7934;DHT22;4012;48.896;9.192;2023-02-28T02:18:51;-1.30;99.90
7934;DHT22;4012;48.896;9.192;2023-02-28T02:24:27;-1.30;99.90
7934;DHT22;4012;48.896;9.192;2023-02-28T02:40:23;-1.30;99.90
7934;DHT22;4012;48.896;9.192;2023-02-28T02:45:58;-1.30;99.90
7934;DHT22;4012;48.896;9.192;2023-02-28T02:48:30;-1.20;99.90
7934;DHT22;4012;48.896;9.192;2023-02-28T02:51:01;-1.20;99.90
7934;DHT22;4012;48.896;9.192;2023-02-28T02:53:33;-1.20;99.90
7934;DHT22;4012;48.896;9.192;2023-02-28T02:56:01;-1.20;99.90
7934;DHT22;4012;48.896;9.192;2023-02-28T02:58:31;-1.20;99.90
7934;DHT22;4012;48.896;9.192;2023-02-28T03:01:01;-1.20;99.90
7934;DHT22;4012;48.896;9.192;2023-02-28T03:03:29;-1.10;99.90
7934;DHT22;4012;48.896;9.192;2023-02-28T03:05:57;-1.20;99.90
7934;DHT22;4012;48.896;9.192;2023-02-28T03:08:25;-1.20;99.90
7934;DHT22;4012;48.896;9.192;2023-02-28T03:10:55;-1.10;99.90
7934;DHT22;4012;48.896;9.192;2023-02-28T03:21:36;-1.00;99.90
7934;DHT22;4012;48.896;9.192;2023-02-28T03:24:18;-1.00;99.90
7934;DHT22;4012;48.896;9.192;2023-02-28T03:26:50;-1.00;99.90
7934;DHT22;4012;48.896;9.192;2023-02-28T03:31:49;-0.90;99.90
7934;DHT22;4012;48.896;9.192;2023-02-28T03:34:29;-0.90;99.90
7934;DHT22;4012;48.896;9.192;2023-02-28T03:37:05;-0.90;99.90
7934;DHT22;4012;48.896;9.192;2023-02-28T03:39:40;-1.00;99.90
7934;DHT22;4012;48.896;9.192;2023-02-28T03:42:20;-0.90;99.90
7934;DHT22;4012;48.896;9.192;2023-02-28T03:45:00;-0.90;99.90
7934;DHT22;4012;48.896;9.192;2023-02-28T03:47:36;-1.00;99.90
7934;DHT22;4012;48.896;9.192;2023-02-28T03:50:10;-1.00;99.90
7934;DHT22;4012;48.896;9.192;2023-02-28T03:52:42;-0.90;99.90
7934;DHT22;4012;48.896;9.192;2023-02-28T03:55:13;-0.90;99.90
7934;DHT22;4012;48.896;9.192;2023-02-28T03:57:48;-1.00;99.90
7934;DHT22;4012;48.896;9.192;2023-02-28T04:00:25;-1.00;99.90
7934;DHT22;4012;48.896;9.192;2023-02-28T04:02:54;-1.00;99.90
7934;DHT22;4012;48.896;9.192;2023-02-28T04:05:21;-0.90;99.90
7934;DHT22;4012;48.896;9.192;2023-02-28T04:07:46;-0.90;99.90
7934;DHT22;4012;48.896;9.192;2023-02-28T04:10:14;-0.90;99.90
7934;DHT22;4012;48.896;9.192;2023-02-28T04:12:40;-0.90;99.90
7934;DHT22;4012;48.896;9.192;2023-02-28T04:15:06;-0.90;99.90
7934;DHT22;4012;48.896;9.192;2023-02-28T04:17:32;-1.00;99.90
7934;DHT22;4012;48.896;9.192;2023-02-28T04:19:58;-1.00;99.90
7934;DHT22;4012;48.896;9.192;2023-02-28T04:22:23;-0.90;99.90
7934;DHT22;4012;48.896;9.192;2023-02-28T04:24:52;-0.90;99.90
7934;DHT22;4012;48.896;9.192;2023-02-28T04:27:20;-0.90;99.90
7934;DHT22;4012;48.896;9.192;2023-02-28T04:29:46;-0.90;99.90
7934;DHT22;4012;48.896;9.192;2023-02-28T04:32:11;-0.80;99.90
7934;DHT22;4012;48.896;9.192;2023-02-28T04:34:37;-0.80;99.90
7934;DHT22;4012;48.896;9.192;2023-02-28T04:37:03;-0.80;99.90
7934;DHT22;4012;48.896;9.192;2023-02-28T04:39:28;-0.80;99.90
7934;DHT22;4012;48.896;9.192;2023-02-28T04:41:54;-0.90;99.90
7934;DHT22;4012;48.896;9.192;2023-02-28T04:44:21;-0.80;99.90
7934;DHT22;4012;48.896;9.192;2023-02-28T04:46:47;-0.80;99.90
7934;DHT22;4012;48.896;9.192;2023-02-28T04:49:14;-0.80;99.90
7934;DHT22;4012;48.896;9.192;2023-02-28T04:51:40;-0.80;99.90
7934;DHT22;4012;48.896;9.192;2023-02-28T04:54:07;-0.90;99.90
7934;DHT22;4012;48.896;9.192;2023-02-28T04:56:33;-0.90;99.90
7934;DHT22;4012;48.896;9.192;2023-02-28T04:58:59;-0.90;99.90
7934;DHT22;4012;48.896;9.192;2023-02-28T05:01:29;-0.90;99.90
7934;DHT22;4012;48.896;9.192;2023-02-28T05:03:57;-0.80;99.90
7934;DHT22;4012;48.896;9.192;2023-02-28T05:06:25;-0.80;99.90
7934;DHT22;4012;48.896;9.192;2023-02-28T05:08:51;-0.80;99.90
7934;DHT22;4012;48.896;9.192;2023-02-28T05:11:25;-0.80;99.90
7934;DHT22;4012;48.896;9.192;2023-02-28T05:13:52;-0.80;99.90
7934;DHT22;4012;48.896;9.192;2023-02-28T05:16:19;-0.80;99.90
7934;DHT22;4012;48.896;9.192;2023-02-28T05:18:45;-0.80;99.90
7934;DHT22;4012;48.896;9.192;2023-02-28T05:21:30;-0.70;99.90
7934;DHT22;4012;48.896;9.192;2023-02-28T05:24:01;-0.80;99.90
7934;DHT22;4012;48.896;9.192;2023-02-28T05:26:27;-0.80;99.90
7934;DHT22;4012;48.896;9.192;2023-02-28T05:28:54;-0.80;99.90
7934;DHT22;4012;48.896;9.192;2023-02-28T05:31:19;-0.70;99.90
7934;DHT22;4012;48.896;9.192;2023-02-28T05:33:45;-0.70;99.90
7934;DHT22;4012;48.896;9.192;2023-02-28T05:36:12;-0.70;99.90
7934;DHT22;4012;48.896;9.192;2023-02-28T05:38:37;-0.60;99.90
7934;DHT22;4012;48.896;9.192;2023-02-28T05:41:07;-0.70;99.90
7934;DHT22;4012;48.896;9.192;2023-02-28T05:43:34;-0.60;99.90
7934;DHT22;4012;48.896;9.192;2023-02-28T05:46:05;-0.60;99.90
7934;DHT22;4012;48.896;9.192;2023-02-28T05:48:32;-0.70;99.90
7934;DHT22;4012;48.896;9.192;2023-02-28T05:50:58;-0.60;99.90
7934;DHT22;4012;48.896;9.192;2023-02-28T05:53:24;-0.60;99.90
7934;DHT22;4012;48.896;9.192;2023-02-28T05:55:49;-0.60;99.90
7934;DHT22;4012;48.896;9.192;2023-02-28T05:58:15;-0.60;99.90
7934;DHT22;4012;48.896;9.192;2023-02-28T06:00:40;-0.60;99.90
7934;DHT22;4012;48.896;9.192;2023-02-28T06:03:06;-0.60;99.90
7934;DHT22;4012;48.896;9.192;2023-02-28T06:05:31;-0.60;99.90
7934;DHT22;4012;48.896;9.192;2023-02-28T06:07:58;-0.60;99.90
7934;DHT22;4012;48.896;9.192;2023-02-28T06:10:23;-0.40;99.90
7934;DHT22;4012;48.896;9.192;2023-02-28T06:12:49;-0.40;99.90
7934;DHT22;4012;48.896;9.192;2023-02-28T06:15:15;-0.40;99.90
7934;DHT22;4012;48.896;9.192;2023-02-28T06:17:42;-0.50;99.90
7934;DHT22;4012;48.896;9.192;2023-02-28T06:20:09;-0.60;99.90
7934;DHT22;4012;48.896;9.192;2023-02-28T06:22:36;-0.50;99.90
7934;DHT22;4012;48.896;9.192;2023-02-28T06:25:03;-0.50;99.90
7934;DHT22;4012;48.896;9.192;2023-02-28T06:27:30;-0.40;99.90
7934;DHT22;4012;48.896;9.192;2023-02-28T06:29:56;-0.60;99.90
7934;DHT22;4012;48.896;9.192;2023-02-28T06:32:22;-0.60;99.90
7934;DHT22;4012;48.896;9.192;2023-02-28T06:34:47;-0.50;99.90
7934;DHT22;4012;48.896;9.192;2023-02-28T06:37:13;-0.50;99.90
7934;DHT22;4012;48.896;9.192;2023-02-28T06:39:39;-0.40;99.90
7934;DHT22;4012;48.896;9.192;2023-02-28T06:42:05;-0.40;99.90
7934;DHT22;4012;48.896;9.192;2023-02-28T06:44:31;-0.40;99.90
7934;DHT22;4012;48.896;9.192;2023-02-28T06:47:01;-0.40;99.90
7934;DHT22;4012;48.896;9.192;2023-02-28T06:49:31;-0.40;99.90
7934;DHT22;4012;48.896;9.192;2023-02-28T06:51:57;-0.40;99.90
7934;DHT22;4012;48.896;9.192;2023-02-28T06:54:23;-0.40;99.90
7934;DHT22;4012;48.896;9.192;2023-02-28T06:56:49;-0.30;99.90
7934;DHT22;4012;48.896;9.192;2023-02-28T06:59:14;-0.30;99.90
7934;DHT22;4012;48.896;9.192;2023-02-28T07:01:40;-0.20;99.90
7934;DHT22;4012;48.896;9.192;2023-02-28T07:04:06;-0.30;99.90
7934;DHT22;4012;48.896;9.192;2023-02-28T07:06:32;-0.30;99.90
7934;DHT22;4012;48.896;9.192;2023-02-28T07:08:58;-0.30;99.90
7934;DHT22;4012;48.896;9.192;2023-02-28T07:11:25;-0.20;99.90
7934;DHT22;4012;48.896;9.192;2023-02-28T07:13:55;-0.30;99.90
7934;DHT22;4012;48.896;9.192;2023-02-28T07:16:22;-0.30;99.90
7934;DHT22;4012;48.896;9.192;2023-02-28T07:18:51;-0.30;99.90
7934;DHT22;4012;48.896;9.192;2023-02-28T07:21:17;-0.30;99.90
7934;DHT22;4012;48.896;9.192;2023-02-28T07:23:43;-0.30;99.90
7934;DHT22;4012;48.896;9.192;2023-02-28T07:26:14;-0.20;99.90
7934;DHT22;4012;48.896;9.192;2023-02-28T07:28:44;-0.20;99.90
7934;DHT22;4012;48.896;9.192;2023-02-28T07:31:11;-0.30;99.90
7934;DHT22;4012;48.896;9.192;2023-02-28T07:33:38;-0.20;99.90
7934;DHT22;4012;48.896;9.192;2023-02-28T07:36:08;-0.20;99.90
7934;DHT22;4012;48.896;9.192;2023-02-28T07:38:37;-0.30;99.90
7934;DHT22;4012;48.896;9.192;2023-02-28T07:41:03;-0.20;99.90
7934;DHT22;4012;48.896;9.192;2023-02-28T07:43:33;-0.30;99.90
7934;DHT22;4012;48.896;9.192;2023-02-28T07:46:07;-0.10;99.90
7934;DHT22;4012;48.896;9.192;2023-02-28T07:48:33;0.00;99.90
7934;DHT22;4012;48.896;9.192;2023-02-28T07:50:59;-0.10;99.90
7934;DHT22;4012;48.896;9.192;2023-02-28T07:53:25;-0.10;99.90
7934;DHT22;4012;48.896;9.192;2023-02-28T07:55:50;-0.10;99.90
7934;DHT22;4012;48.896;9.192;2023-02-28T07:58:16;-0.20;99.90
7934;DHT22;4012;48.896;9.192;2023-02-28T08:00:42;-0.30;99.90
7934;DHT22;4012;48.896;9.192;2023-02-28T08:03:11;-0.30;99.90
7934;DHT22;4012;48.896;9.192;2023-02-28T08:05:40;-0.10;99.90
7934;DHT22;4012;48.896;9.192;2023-02-28T08:08:09;-0.10;99.90
7934;DHT22;4012;48.896;9.192;2023-02-28T08:10:35;-0.30;99.90
7934;DHT22;4012;48.896;9.192;2023-02-28T08:13:01;-0.20;99.90
7934;DHT22;4012;48.896;9.192;2023-02-28T08:15:27;-0.20;99.90
7934;DHT22;4012;48.896;9.192;2023-02-28T08:17:52;-0.10;99.90
7934;DHT22;4012;48.896;9.192;2023-02-28T08:20:18;0.00;99.90
7934;DHT22;4012;48.896;9.192;2023-02-28T08:22:44;0.10;99.90
7934;DHT22;4012;48.896;9.192;2023-02-28T08:25:10;0.10;99.90
7934;DHT22;4012;48.896;9.192;2023-02-28T08:27:36;0.10;99.90
7934;DHT22;4012;48.896;9.192;2023-02-28T08:30:02;0.20;99.90
7934;DHT22;4012;48.896;9.192;2023-02-28T08:32:28;0.20;99.90
7934;DHT22;4012;48.896;9.192;2023-02-28T08:34:54;0.20;99.90
7934;DHT22;4012;48.896;9.192;2023-02-28T08:37:19;0.20;99.90
7934;DHT22;4012;48.896;9.192;2023-02-28T08:39:45;0.20;99.90
7934;DHT22;4012;48.896;9.192;2023-02-28T08:42:11;0.20;99.90
7934;DHT22;4012;48.896;9.192;2023-02-28T08:44:36;0.40;99.90
7934;DHT22;4012;48.896;9.192;2023-02-28T08:47:02;0.50;99.90
7934;DHT22;4012;48.896;9.192;2023-02-28T08:49:28;0.60;99.90
7934;DHT22;4012;48.896;9.192;2023-02-28T08:51:54;0.80;99.90
7934;DHT22;4012;48.896;9.192;2023-02-28T08:54:21;0.80;99.90
7934;DHT22;4012;48.896;9.192;2023-02-28T08:56:48;0.70;99.90
7934;DHT22;4012;48.896;9.192;2023-02-28T08:59:13;0.60;99.90
7934;DHT22;4012;48.896;9.192;2023-02-28T09:01:40;0.80;99.90
7934;DHT22;4012;48.896;9.192;2023-02-28T09:04:07;1.00;99.90
7934;DHT22;4012;48.896;9.192;2023-02-28T09:06:34;0.90;99.90
7934;DHT22;4012;48.896;9.192;2023-02-28T09:09:00;0.90;99.90
7934;DHT22;4012;48.896;9.192;2023-02-28T09:11:27;0.90;99.90
7934;DHT22;4012;48.896;9.192;2023-02-28T09:13:53;0.80;99.90
7934;DHT22;4012;48.896;9.192;2023-02-28T09:16:19;0.80;99.90
7934;DHT22;4012;48.896;9.192;2023-02-28T09:18:45;1.00;99.90
7934;DHT22;4012;48.896;9.192;2023-02-28T09:21:12;0.90;99.90
7934;DHT22;4012;48.896;9.192;2023-02-28T09:23:43;1.00;99.90
7934;DHT22;4012;48.896;9.192;2023-02-28T09:26:17;1.10;99.90
7934;DHT22;4012;48.896;9.192;2023-02-28T09:28:43;1.20;99.90
7934;DHT22;4012;48.896;9.192;2023-02-28T09:31:18;1.20;99.90
7934;DHT22;4012;48.896;9.192;2023-02-28T09:33:47;1.30;99.90
7934;DHT22;4012;48.896;9.192;2023-02-28T09:36:12;1.70;99.90
7934;DHT22;4012;48.896;9.192;2023-02-28T09:38:38;1.90;99.90
7934;DHT22;4012;48.896;9.192;2023-02-28T09:41:24;1.90;99.90
7934;DHT22;4012;48.896;9.192;2023-02-28T09:43:55;2.10;99.90
7934;DHT22;4012;48.896;9.192;2023-02-28T09:46:33;2.10;99.90
7934;DHT22;4012;48.896;9.192;2023-02-28T09:49:06;1.90;99.90
7934;DHT22;4012;48.896;9.192;2023-02-28T09:54:21;1.80;99.90
7934;DHT22;4012;48.896;9.192;2023-02-28T09:56:56;2.00;99.90
7934;DHT22;4012;48.896;9.192;2023-02-28T09:59:31;2.20;99.90
7934;DHT22;4012;48.896;9.192;2023-02-28T10:05:13;2.10;99.90
7934;DHT22;4012;48.896;9.192;2023-02-28T10:10:44;2.30;99.90
7934;DHT22;4012;48.896;9.192;2023-02-28T10:13:25;2.40;99.90
7934;DHT22;4012;48.896;9.192;2023-02-28T10:15:58;2.30;99.90
7934;DHT22;4012;48.896;9.192;2023-02-28T10:18:28;2.40;99.90
7934;DHT22;4012;48.896;9.192;2023-02-28T10:20:56;2.50;99.90
7934;DHT22;4012;48.896;9.192;2023-02-28T10:23:36;2.70;99.90
7934;DHT22;4012;48.896;9.192;2023-02-28T10:26:12;2.70;99.90
7934;DHT22;4012;48.896;9.192;2023-02-28T10:28:39;2.90;99.90
7934;DHT22;4012;48.896;9.192;2023-02-28T10:31:05;2.90;99.90
7934;DHT22;4012;48.896;9.192;2023-02-28T10:33:35;3.40;99.90
7934;DHT22;4012;48.896;9.192;2023-02-28T10:36:01;3.60;99.90
7934;DHT22;4012;48.896;9.192;2023-02-28T10:38:33;3.30;99.90
7934;DHT22;4012;48.896;9.192;2023-02-28T10:41:10;3.10;99.90
7934;DHT22;4012;48.896;9.192;2023-02-28T10:43:38;2.60;99.90
7934;DHT22;4012;48.896;9.192;2023-02-28T10:48:41;3.00;99.90
7934;DHT22;4012;48.896;9.192;2023-02-28T10:51:12;3.60;99.90
7934;DHT22;4012;48.896;9.192;2023-02-28T11:01:16;3.20;99.90
7934;DHT22;4012;48.896;9.192;2023-02-28T11:03:42;3.50;99.90
7934;DHT22;4012;48.896;9.192;2023-02-28T11:06:23;3.60;99.90
7934;DHT22;4012;48.896;9.192;2023-02-28T11:08:53;3.90;99.90
7934;DHT22;4012;48.896;9.192;2023-02-28T11:11:21;3.60;99.90
7934;DHT22;4012;48.896;9.192;2023-02-28T11:13:51;3.40;99.90
7934;DHT22;4012;48.896;9.192;2023-02-28T11:16:18;3.30;99.90
7934;DHT22;4012;48.896;9.192;2023-02-28T11:21:23;3.40;99.90
7934;DHT22;4012;48.896;9.192;2023-02-28T11:23:52;3.50;99.90
7934;DHT22;4012;48.896;9.192;2023-02-28T11:26:36;3.40;99.90
7934;DHT22;4012;48.896;9.192;2023-02-28T11:29:23;3.60;99.90
7934;DHT22;4012;48.896;9.192;2023-02-28T11:34:35;4.10;99.90
7934;DHT22;4012;48.896;9.192;2023-02-28T11:37:01;4.20;99.90
7934;DHT22;4012;48.896;9.192;2023-02-28T11:39:30;4.90;99.90
7934;DHT22;4012;48.896;9.192;2023-02-28T11:52:40;5.00;99.90
7934;DHT22;4012;48.896;9.192;2023-02-28T11:55:14;4.80;99.90
7934;DHT22;4012;48.896;9.192;2023-02-28T12:01:33;4.40;99.90
7934;DHT22;4012;48.896;9.192;2023-02-28T12:03:43;4.50;99.90
7934;DHT22;4012;48.896;9.192;2023-02-28T12:19:30;5.70;99.90
7934;DHT22;4012;48.896;9.192;2023-02-28T12:22:28;5.70;99.90
7934;DHT22;4012;48.896;9.192;2023-02-28T12:25:13;5.60;99.90
7934;DHT22;4012;48.896;9.192;2023-02-28T12:27:46;5.50;99.90
7934;DHT22;4012;48.896;9.192;2023-02-28T12:30:31;5.60;99.90
7934;DHT22;4012;48.896;9.192;2023-02-28T12:33:06;5.10;99.90
7934;DHT22;4012;48.896;9.192;2023-02-28T12:35:55;5.30;99.90
7934;DHT22;4012;48.896;9.192;2023-02-28T12:38:22;5.10;99.90
7934;DHT22;4012;48.896;9.192;2023-02-28T12:40:53;5.50;99.90
7934;DHT22;4012;48.896;9.192;2023-02-28T12:43:22;5.30;99.90
7934;DHT22;4012;48.896;9.192;2023-02-28T12:46:00;5.70;99.90
7934;DHT22;4012;48.896;9.192;2023-02-28T12:48:37;5.00;99.90
7934;DHT22;4012;48.896;9.192;2023-02-28T12:51:06;5.30;99.90
7934;DHT22;4012;48.896;9.192;2023-02-28T13:10:10;5.70;99.90
7934;DHT22;4012;48.896;9.192;2023-02-28T13:12:36;5.60;99.90
7934;DHT22;4012;48.896;9.192;2023-02-28T13:17:48;5.60;99.90
7934;DHT22;4012;48.896;9.192;2023-02-28T13:20:35;5.70;99.90
7934;DHT22;4012;48.896;9.192;2023-02-28T13:23:01;5.60;99.90
7934;DHT22;4012;48.896;9.192;2023-02-28T13:25:50;5.80;99.90
7934;DHT22;4012;48.896;9.192;2023-02-28T13:31:16;5.70;99.90
7934;DHT22;4012;48.896;9.192;2023-02-28T13:38:43;6.10;99.90
7934;DHT22;4012;48.896;9.192;2023-02-28T13:46:32;5.70;99.90
7934;DHT22;4012;48.896;9.192;2023-02-28T13:49:25;5.70;99.90
7934;DHT22;4012;48.896;9.192;2023-02-28T13:59:47;5.80;99.90
7934;DHT22;4012;48.896;9.192;2023-02-28T14:02:34;6.00;99.90
7934;DHT22;4012;48.896;9.192;2023-02-28T14:05:15;6.10;99.90
7934;DHT22;4012;48.896;9.192;2023-02-28T14:08:27;6.10;99.90
7934;DHT22;4012;48.896;9.192;2023-02-28T14:10:53;5.90;99.90
7934;DHT22;4012;48.896;9.192;2023-02-28T14:16:10;6.00;99.90
7934;DHT22;4012;48.896;9.192;2023-02-28T14:18:42;6.20;99.90
7934;DHT22;4012;48.896;9.192;2023-02-28T14:21:20;6.10;99.90
7934;DHT22;4012;48.896;9.192;2023-02-28T14:34:53;6.10;99.90
7934;DHT22;4012;48.896;9.192;2023-02-28T14:37:27;6.00;99.90
7934;DHT22;4012;48.896;9.192;2023-02-28T14:39:54;5.80;99.90
7934;DHT22;4012;48.896;9.192;2023-02-28T14:42:39;5.90;99.90
7934;DHT22;4012;48.896;9.192;2023-02-28T14:45:20;6.00;99.90
7934;DHT22;4012;48.896;9.192;2023-02-28T14:47:47;5.80;99.90
7934;DHT22;4012;48.896;9.192;2023-02-28T14:50:26;6.00;99.90
7934;DHT22;4012;48.896;9.192;2023-02-28T14:52:53;6.00;99.90
7934;DHT22;4012;48.896;9.192;2023-02-28T14:55:24;6.10;99.90
7934;DHT22;4012;48.896;9.192;2023-02-28T14:58:05;6.30;99.90
7934;DHT22;4012;48.896;9.192;2023-02-28T15:00:53;6.00;99.90
7934;DHT22;4012;48.896;9.192;2023-02-28T15:03:23;6.00;99.90
7934;DHT22;4012;48.896;9.192;2023-02-28T15:05:55;5.70;99.90
7934;DHT22;4012;48.896;9.192;2023-02-28T15:08:21;5.70;99.90
7934;DHT22;4012;48.896;9.192;2023-02-28T15:10:59;5.70;99.90
7934;DHT22;4012;48.896;9.192;2023-02-28T15:13:41;5.70;99.90
7934;DHT22;4012;48.896;9.192;2023-02-28T15:16:16;5.70;99.90
7934;DHT22;4012;48.896;9.192;2023-02-28T15:19:01;5.80;99.90
7934;DHT22;4012;48.896;9.192;2023-02-28T15:21:33;5.80;99.90
7934;DHT22;4012;48.896;9.192;2023-02-28T15:26:46;5.70;99.90
7934;DHT22;4012;48.896;9.192;2023-02-28T15:29:22;5.70;99.90
7934;DHT22;4012;48.896;9.192;2023-02-28T15:31:58;5.70;99.90
7934;DHT22;4012;48.896;9.192;2023-02-28T15:34:40;5.60;99.90
7934;DHT22;4012;48.896;9.192;2023-02-28T15:39:49;5.40;99.90
7934;DHT22;4012;48.896;9.192;2023-02-28T15:42:20;5.50;99.90
7934;DHT22;4012;48.896;9.192;2023-02-28T15:44:46;5.50;99.90
7934;DHT22;4012;48.896;9.192;2023-02-28T15:47:20;5.40;99.90
7934;DHT22;4012;48.896;9.192;2023-02-28T15:49:58;5.30;99.90
7934;DHT22;4012;48.896;9.192;2023-02-28T15:52:39;5.30;99.90
7934;DHT22;4012;48.896;9.192;2023-02-28T15:55:19;5.40;99.90
7934;DHT22;4012;48.896;9.192;2023-02-28T15:57:48;5.30;99.90
7934;DHT22;4012;48.896;9.192;2023-02-28T16:00:19;5.20;99.90
7934;DHT22;4012;48.896;9.192;2023-02-28T16:02:45;5.10;99.90
7934;DHT22;4012;48.896;9.192;2023-02-28T16:07:41;5.00;99.90
7934;DHT22;4012;48.896;9.192;2023-02-28T16:10:10;5.00;99.90
7934;DHT22;4012;48.896;9.192;2023-02-28T16:12:37;5.00;99.90
7934;DHT22;4012;48.896;9.192;2023-02-28T16:15:37;4.90;99.90
7934;DHT22;4012;48.896;9.192;2023-02-28T16:18:10;4.90;99.90
7934;DHT22;4012;48.896;9.192;2023-02-28T16:20:36;4.90;99.90
7934;DHT22;4012;48.896;9.192;2023-02-28T16:23:02;4.90;99.90
7934;DHT22;4012;48.896;9.192;2023-02-28T16:25:39;4.80;99.90
7934;DHT22;4012;48.896;9.192;2023-02-28T16:28:20;4.80;99.90
7934;DHT22;4012;48.896;9.192;2023-02-28T16:30:46;4.70;99.90
7934;DHT22;4012;48.896;9.192;2023-02-28T16:33:12;4.70;99.90
7934;DHT22;4012;48.896;9.192;2023-02-28T16:35:37;4.70;99.90
7934;DHT22;4012;48.896;9.192;2023-02-28T16:38:03;4.60;99.90
7934;DHT22;4012;48.896;9.192;2023-02-28T16:40:33;4.60;99.90
7934;DHT22;4012;48.896;9.192;2023-02-28T16:43:00;4.60;99.90
7934;DHT22;4012;48.896;9.192;2023-02-28T16:45:27;4.50;99.90
7934;DHT22;4012;48.896;9.192;2023-02-28T16:47:54;4.50;99.90
7934;DHT22;4012;48.896;9.192;2023-02-28T16:50:26;4.40;99.90
7934;DHT22;4012;48.896;9.192;2023-02-28T16:52:52;4.40;99.90
7934;DHT22;4012;48.896;9.192;2023-02-28T16:55:18;4.30;99.90
7934;DHT22;4012;48.896;9.192;2023-02-28T16:57:46;4.20;99.90
7934;DHT22;4012;48.896;9.192;2023-02-28T17:00:14;4.20;99.90
7934;DHT22;4012;48.896;9.192;2023-02-28T17:02:40;4.20;99.90
7934;DHT22;4012;48.896;9.192;2023-02-28T17:05:06;4.10;99.90
7934;DHT22;4012;48.896;9.192;2023-02-28T17:07:32;4.10;99.90
7934;DHT22;4012;48.896;9.192;2023-02-28T17:09:58;4.10;99.90
7934;DHT22;4012;48.896;9.192;2023-02-28T17:12:24;4.00;99.90
7934;DHT22;4012;48.896;9.192;2023-02-28T17:14:50;4.00;99.90
7934;DHT22;4012;48.896;9.192;2023-02-28T17:17:20;4.00;99.90
7934;DHT22;4012;48.896;9.192;2023-02-28T17:19:46;4.00;99.90
7934;DHT22;4012;48.896;9.192;2023-02-28T17:22:12;3.90;99.90
7934;DHT22;4012;48.896;9.192;2023-02-28T17:24:37;3.90;99.90
7934;DHT22;4012;48.896;9.192;2023-02-28T17:27:03;3.80;99.90
7934;DHT22;4012;48.896;9.192;2023-02-28T17:29:29;3.80;99.90
7934;DHT22;4012;48.896;9.192;2023-02-28T17:31:55;3.80;99.90
7934;DHT22;4012;48.896;9.192;2023-02-28T17:34:21;3.80;99.90
7934;DHT22;4012;48.896;9.192;2023-02-28T17:36:48;3.80;99.90
7934;DHT22;4012;48.896;9.192;2023-02-28T17:39:16;3.70;99.90
7934;DHT22;4012;48.896;9.192;2023-02-28T17:41:49;3.70;99.90
7934;DHT22;4012;48.896;9.192;2023-02-28T17:44:15;3.70;99.90
7934;DHT22;4012;48.896;9.192;2023-02-28T17:46:42;3.60;99.90
7934;DHT22;4012;48.896;9.192;2023-02-28T17:49:08;3.60;99.90
7934;DHT22;4012;48.896;9.192;2023-02-28T17:51:34;3.50;99.90
7934;DHT22;4012;48.896;9.192;2023-02-28T17:53:59;3.50;99.90
7934;DHT22;4012;48.896;9.192;2023-02-28T17:56:25;3.50;99.90
7934;DHT22;4012;48.896;9.192;2023-02-28T17:58:53;3.50;99.90
7934;DHT22;4012;48.896;9.192;2023-02-28T18:01:20;3.50;99.90
7934;DHT22;4012;48.896;9.192;2023-02-28T18:03:46;3.50;99.90
7934;DHT22;4012;48.896;9.192;2023-02-28T18:06:35;3.50;99.90
7934;DHT22;4012;48.896;9.192;2023-02-28T18:09:01;3.40;99.90
7934;DHT22;4012;48.896;9.192;2023-02-28T18:11:27;3.40;99.90
7934;DHT22;4012;48.896;9.192;2023-02-28T18:14:08;3.40;99.90
7934;DHT22;4012;48.896;9.192;2023-02-28T18:16:34;3.40;99.90
7934;DHT22;4012;48.896;9.192;2023-02-28T18:19:00;3.30;99.90
7934;DHT22;4012;48.896;9.192;2023-02-28T18:21:27;3.30;99.90
7934;DHT22;4012;48.896;9.192;2023-02-28T18:23:53;3.30;99.90
7934;DHT22;4012;48.896;9.192;2023-02-28T18:26:19;3.20;99.90
7934;DHT22;4012;48.896;9.192;2023-02-28T18:28:46;3.20;99.90
7934;DHT22;4012;48.896;9.192;2023-02-28T18:31:13;3.20;99.90
7934;DHT22;4012;48.896;9.192;2023-02-28T18:33:41;3.20;99.90
7934;DHT22;4012;48.896;9.192;2023-02-28T18:36:07;3.20;99.90
7934;DHT22;4012;48.896;9.192;2023-02-28T18:38:32;3.20;99.90
7934;DHT22;4012;48.896;9.192;2023-02-28T18:41:00;3.20;99.90
7934;DHT22;4012;48.896;9.192;2023-02-28T18:43:28;3.20;99.90
7934;DHT22;4012;48.896;9.192;2023-02-28T18:45:53;3.10;99.90
7934;DHT22;4012;48.896;9.192;2023-02-28T18:48:20;3.10;99.90
7934;DHT22;4012;48.896;9.192;2023-02-28T18:50:50;3.10;99.90